Time;durP1;ratioP1;P1;durP2;ratioP2;P2;SDS_P1;SDS_P2;PMS_P1;PMS_P2;Temp;Humidity;BMP_temperature;BMP_pressure;BME280_temperature;BME280_humidity;BME280_pressure;Samples;Min_cycle;Max_cycle;Signal;HPM_P1;HPM_P2
2023/12/24 00:00:26;;;;;;;5.25;1.75;;;;;;;;;;5078172;28;20399;-82
2023/12/24 00:02:52;;;;;;;2.23;1.13;;;;;;;;;;5077212;28;20184;-80
2023/12/24 00:05:18;;;;;;;5.03;1.10;;;;;;;;;;5078331;28;20438;-81
2023/12/24 00:07:43;;;;;;;2.53;1.20;;;;;;;;;;5077606;28;20545;-80
2023/12/24 00:10:10;;;;;;;3.37;1.30;;;;;;;;;;5076169;28;20691;-81
2023/12/24 00:12:37;;;;;;;3.45;1.00;;;;;;;;;;5076182;28;20418;-80
2023/12/24 00:15:05;;;;;;;3.10;0.90;;;;;;;;;;5075700;28;20204;-80
2023/12/24 00:17:31;;;;;;;1.90;1.00;;;;;;;;;;5077265;28;20597;-81
2023/12/24 00:19:58;;;;;;;6.55;1.10;;;;;;;;;;5076857;28;20278;-81
2023/12/24 00:22:27;;;;;;;2.97;1.50;;;;;;;;;;5076658;28;20570;-81
2023/12/24 00:24:53;;;;;;;7.03;1.25;;;;;;;;;;5077090;28;20180;-81
2023/12/24 00:27:19;;;;;;;2.47;1.03;;;;;;;;;;5077651;28;20175;-80
2023/12/24 00:29:45;;;;;;;1.35;0.95;;;;;;;;;;5077015;28;20459;-80
2023/12/24 00:32:11;;;;;;;2.67;1.00;;;;;;;;;;5076349;28;20290;-80
2023/12/24 00:34:37;;;;;;;1.70;1.20;;;;;;;;;;5076954;28;20495;-81
2023/12/24 00:37:03;;;;;;;1.98;1.10;;;;;;;;;;5076241;28;20203;-81
2023/12/24 00:39:29;;;;;;;1.75;0.82;;;;;;;;;;5075305;28;20573;-80
2023/12/24 00:41:55;;;;;;;2.17;0.90;;;;;;;;;;5076442;28;20171;-82
2023/12/24 00:44:21;;;;;;;1.43;1.23;;;;;;;;;;5076375;28;20968;-81
2023/12/24 00:46:47;;;;;;;2.20;1.00;;;;;;;;;;5076358;28;20417;-81
2023/12/24 00:49:13;;;;;;;1.67;1.00;;;;;;;;;;5075803;28;20846;-81
2023/12/24 00:51:42;;;;;;;1.47;0.80;;;;;;;;;;5076696;28;20391;-81
2023/12/24 00:54:09;;;;;;;1.00;0.80;;;;;;;;;;5075913;28;20895;-81
2023/12/24 00:56:35;;;;;;;3.97;1.10;;;;;;;;;;5076497;28;20275;-81
2023/12/24 00:59:00;;;;;;;0.70;0.63;;;;;;;;;;5076971;28;20211;-81
2023/12/24 01:01:26;;;;;;;1.17;0.80;;;;;;;;;;5077032;28;20426;-80
2023/12/24 01:03:52;;;;;;;3.60;1.60;;;;;;;;;;5076254;28;20489;-82
2023/12/24 01:06:18;;;;;;;1.10;0.70;;;;;;;;;;5076305;28;20408;-81
2023/12/24 01:08:44;;;;;;;1.57;0.80;;;;;;;;;;5076680;28;20184;-81
2023/12/24 01:11:12;;;;;;;1.17;0.90;;;;;;;;;;5076339;28;20498;-81
2023/12/24 01:13:38;;;;;;;2.75;0.70;;;;;;;;;;5076710;28;20407;-81
2023/12/24 01:16:04;;;;;;;1.60;0.70;;;;;;;;;;5075720;28;20190;-81
2023/12/24 01:18:30;;;;;;;1.42;0.80;;;;;;;;;;5076000;28;20417;-81
2023/12/24 01:20:56;;;;;;;2.17;1.02;;;;;;;;;;5076111;28;20191;-82
2023/12/24 01:23:23;;;;;;;1.40;0.75;;;;;;;;;;5075321;28;20173;-81
2023/12/24 01:25:49;;;;;;;1.10;0.70;;;;;;;;;;5075878;28;20180;-82
2023/12/24 01:28:15;;;;;;;1.55;0.70;;;;;;;;;;5075601;28;20233;-82
2023/12/24 01:30:41;;;;;;;1.07;0.70;;;;;;;;;;5075437;28;20212;-82
2023/12/24 01:33:08;;;;;;;0.70;0.60;;;;;;;;;;5075799;28;20410;-81
2023/12/24 01:35:34;;;;;;;1.10;0.75;;;;;;;;;;5075151;28;20191;-81
2023/12/24 01:38:00;;;;;;;1.73;0.80;;;;;;;;;;5075533;28;20165;-82
2023/12/24 01:40:26;;;;;;;0.90;0.60;;;;;;;;;;5075001;28;20504;-81
2023/12/24 01:42:52;;;;;;;1.60;0.70;;;;;;;;;;5076334;28;20395;-81
2023/12/24 01:45:18;;;;;;;1.00;0.77;;;;;;;;;;5075583;28;20431;-81
2023/12/24 01:47:44;;;;;;;1.77;0.50;;;;;;;;;;5075653;28;20808;-81
2023/12/24 01:50:10;;;;;;;1.50;0.70;;;;;;;;;;5074023;28;20540;-82
2023/12/24 01:52:36;;;;;;;1.77;0.70;;;;;;;;;;5075408;28;20570;-81
2023/12/24 01:55:02;;;;;;;0.90;0.70;;;;;;;;;;5075731;28;20211;-81
2023/12/24 01:57:30;;;;;;;1.25;1.15;;;;;;;;;;5074478;28;20214;-81
2023/12/24 01:59:56;;;;;;;2.45;0.73;;;;;;;;;;5075708;28;20648;-81
2023/12/24 02:02:22;;;;;;;0.80;0.60;;;;;;;;;;5075110;28;20624;-81
2023/12/24 02:04:49;;;;;;;0.70;0.50;;;;;;;;;;5075718;28;20177;-81
2023/12/24 02:07:15;;;;;;;1.00;0.70;;;;;;;;;;5075155;28;20411;-81
2023/12/24 02:09:43;;;;;;;3.55;0.90;;;;;;;;;;5075703;28;20262;-81
2023/12/24 02:12:09;;;;;;;1.80;0.73;;;;;;;;;;5075193;28;20169;-81
2023/12/24 02:14:35;;;;;;;1.67;0.70;;;;;;;;;;5075702;28;20187;-82
2023/12/24 02:17:02;;;;;;;0.77;0.55;;;;;;;;;;5075275;28;20506;-82
2023/12/24 02:19:28;;;;;;;0.60;0.50;;;;;;;;;;5075293;28;20193;-82
2023/12/24 02:21:54;;;;;;;5.38;0.73;;;;;;;;;;5075718;28;20522;-81
2023/12/24 02:24:20;;;;;;;0.73;0.57;;;;;;;;;;5075817;28;20181;-81
2023/12/24 02:26:51;;;;;;;0.80;0.60;;;;;;;;;;5075388;28;20633;-81
2023/12/24 02:29:19;;;;;;;0.60;0.50;;;;;;;;;;5074712;28;20399;-81
2023/12/24 02:31:46;;;;;;;1.45;0.60;;;;;;;;;;5075500;28;20177;-81
2023/12/24 02:34:14;;;;;;;1.10;0.68;;;;;;;;;;5074946;28;20180;-81
2023/12/24 02:36:40;;;;;;;0.70;0.50;;;;;;;;;;5076587;28;20560;-81
2023/12/24 02:39:06;;;;;;;0.80;0.50;;;;;;;;;;5078947;28;20177;-81
2023/12/24 02:41:32;;;;;;;0.70;0.50;;;;;;;;;;5078949;28;20242;-81
2023/12/24 02:43:58;;;;;;;0.97;0.60;;;;;;;;;;5078622;28;20210;-82
2023/12/24 02:46:24;;;;;;;0.80;0.60;;;;;;;;;;5078738;28;20875;-81
2023/12/24 02:48:50;;;;;;;0.90;0.60;;;;;;;;;;5077528;28;20208;-82
2023/12/24 02:51:16;;;;;;;0.90;0.53;;;;;;;;;;5078544;28;20571;-81
2023/12/24 02:53:42;;;;;;;0.87;0.60;;;;;;;;;;5077405;28;20399;-81
2023/12/24 02:56:08;;;;;;;0.70;0.60;;;;;;;;;;5078321;28;20453;-82
2023/12/24 02:58:34;;;;;;;0.80;0.60;;;;;;;;;;5078883;28;20184;-81
2023/12/24 03:01:00;;;;;;;0.88;0.70;;;;;;;;;;5078605;28;20848;-82
2023/12/24 03:03:26;;;;;;;0.80;0.70;;;;;;;;;;5078381;28;20173;-80
2023/12/24 03:05:52;;;;;;;1.20;0.77;;;;;;;;;;5078878;28;20188;-81
2023/12/24 03:08:18;;;;;;;0.87;0.50;;;;;;;;;;5078439;28;20907;-81
2023/12/24 03:10:44;;;;;;;0.70;0.50;;;;;;;;;;5078712;28;20473;-81
2023/12/24 03:13:10;;;;;;;0.80;0.60;;;;;;;;;;5078726;28;20404;-81
2023/12/24 03:15:36;;;;;;;1.27;0.60;;;;;;;;;;5078563;28;20757;-80
2023/12/24 03:18:02;;;;;;;0.97;0.70;;;;;;;;;;5078071;28;20395;-81
2023/12/24 03:20:28;;;;;;;1.73;0.80;;;;;;;;;;5078916;28;20414;-81
2023/12/24 03:22:54;;;;;;;0.90;0.70;;;;;;;;;;5077285;28;20184;-81
2023/12/24 03:25:20;;;;;;;2.70;0.60;;;;;;;;;;5077171;28;20397;-81
2023/12/24 03:27:46;;;;;;;0.90;0.80;;;;;;;;;;5078505;28;20760;-81
2023/12/24 03:30:12;;;;;;;3.03;0.80;;;;;;;;;;5078248;28;20553;-81
2023/12/24 03:32:38;;;;;;;1.55;0.82;;;;;;;;;;5078300;28;20449;-81
2023/12/24 03:35:04;;;;;;;2.20;0.67;;;;;;;;;;5078299;28;20546;-81
2023/12/24 03:37:30;;;;;;;1.00;0.90;;;;;;;;;;5078068;28;20407;-81
2023/12/24 03:39:56;;;;;;;0.83;0.80;;;;;;;;;;5078099;28;20187;-80
2023/12/24 03:42:22;;;;;;;1.07;0.70;;;;;;;;;;5077600;28;20404;-81
2023/12/24 03:44:48;;;;;;;1.10;0.80;;;;;;;;;;5078113;28;20399;-81
2023/12/24 03:47:14;;;;;;;0.90;0.63;;;;;;;;;;5078312;28;20414;-81
2023/12/24 03:49:40;;;;;;;0.87;0.70;;;;;;;;;;5077879;28;21037;-81
2023/12/24 03:52:06;;;;;;;1.65;0.70;;;;;;;;;;5077726;28;20417;-81
2023/12/24 03:54:32;;;;;;;0.70;0.60;;;;;;;;;;5077494;28;20187;-81
2023/12/24 03:56:58;;;;;;;0.80;0.70;;;;;;;;;;5077295;28;20187;-82
2023/12/24 03:59:24;;;;;;;0.70;0.60;;;;;;;;;;5076724;28;20418;-81
2023/12/24 04:01:50;;;;;;;1.00;0.70;;;;;;;;;;5076911;28;20479;-81
2023/12/24 04:04:16;;;;;;;0.60;0.50;;;;;;;;;;5076871;28;20402;-82
2023/12/24 04:06:42;;;;;;;1.40;0.70;;;;;;;;;;5077292;28;20399;-82
2023/12/24 04:09:09;;;;;;;0.70;0.50;;;;;;;;;;5076784;28;20400;-82
2023/12/24 04:11:35;;;;;;;0.70;0.60;;;;;;;;;;5075508;28;20897;-81
2023/12/24 04:14:01;;;;;;;1.00;0.80;;;;;;;;;;5076267;28;20220;-81
2023/12/24 04:16:27;;;;;;;1.47;0.70;;;;;;;;;;5074688;28;20907;-82
2023/12/24 04:18:53;;;;;;;0.60;0.50;;;;;;;;;;5075028;28;20419;-82
2023/12/24 04:21:19;;;;;;;0.70;0.50;;;;;;;;;;5076441;28;20184;-81
2023/12/24 04:23:45;;;;;;;0.70;0.57;;;;;;;;;;5075887;28;20479;-83
2023/12/24 04:26:11;;;;;;;0.70;0.60;;;;;;;;;;5075962;28;20419;-82
2023/12/24 04:28:37;;;;;;;0.80;0.60;;;;;;;;;;5076076;28;20455;-82
2023/12/24 04:31:03;;;;;;;0.70;0.60;;;;;;;;;;5076103;28;20622;-82
2023/12/24 04:33:30;;;;;;;0.65;0.50;;;;;;;;;;5076154;28;20907;-82
2023/12/24 04:35:56;;;;;;;1.10;0.50;;;;;;;;;;5075960;28;20188;-82
2023/12/24 04:38:22;;;;;;;0.67;0.50;;;;;;;;;;5075715;28;20173;-82
2023/12/24 04:40:48;;;;;;;0.80;0.50;;;;;;;;;;5076026;28;20929;-82
2023/12/24 04:43:14;;;;;;;0.67;0.50;;;;;;;;;;5074706;28;20914;-82
2023/12/24 04:45:40;;;;;;;0.70;0.50;;;;;;;;;;5074637;28;20748;-83
2023/12/24 04:48:06;;;;;;;0.80;0.60;;;;;;;;;;5075977;28;20403;-84
2023/12/24 04:50:32;;;;;;;0.70;0.50;;;;;;;;;;5075874;28;20544;-82
2023/12/24 04:52:58;;;;;;;0.60;0.50;;;;;;;;;;5075827;28;20177;-83
2023/12/24 04:55:24;;;;;;;0.67;0.50;;;;;;;;;;5074155;28;20411;-83
2023/12/24 04:57:49;;;;;;;0.77;0.60;;;;;;;;;;5075785;28;20495;-82
2023/12/24 05:00:16;;;;;;;0.60;0.50;;;;;;;;;;5075295;28;20418;-83
2023/12/24 05:02:42;;;;;;;0.60;0.50;;;;;;;;;;5075482;28;20406;-82
2023/12/24 05:05:08;;;;;;;0.97;0.57;;;;;;;;;;5075316;28;20177;-83
2023/12/24 05:07:34;;;;;;;0.60;0.45;;;;;;;;;;5075497;28;20765;-83
2023/12/24 05:10:01;;;;;;;0.70;0.50;;;;;;;;;;5075449;28;20222;-83
2023/12/24 05:12:27;;;;;;;0.73;0.50;;;;;;;;;;5075669;28;20227;-82
2023/12/24 05:14:53;;;;;;;0.80;0.53;;;;;;;;;;5075686;28;20177;-82
2023/12/24 05:17:19;;;;;;;0.80;0.60;;;;;;;;;;5075421;28;20910;-83
2023/12/24 05:19:44;;;;;;;0.70;0.50;;;;;;;;;;5075721;28;20423;-83
2023/12/24 05:22:10;;;;;;;1.37;0.53;;;;;;;;;;5075812;28;20419;-84
2023/12/24 05:24:37;;;;;;;0.70;0.50;;;;;;;;;;5075758;28;20403;-84
2023/12/24 05:27:03;;;;;;;0.65;0.40;;;;;;;;;;5075562;28;20208;-84
2023/12/24 05:29:28;;;;;;;0.60;0.40;;;;;;;;;;5075547;28;20200;-84
2023/12/24 05:31:56;;;;;;;0.90;0.77;;;;;;;;;;5075246;28;20242;-84
2023/12/24 05:34:22;;;;;;;0.60;0.40;;;;;;;;;;5074919;28;20412;-84
2023/12/24 05:36:48;;;;;;;0.60;0.50;;;;;;;;;;5075193;28;20173;-84
2023/12/24 05:39:14;;;;;;;0.60;0.40;;;;;;;;;;5075330;28;20419;-85
2023/12/24 05:41:44;;;;;;;0.73;0.47;;;;;;;;;;5075504;28;20419;-84
2023/12/24 05:44:10;;;;;;;1.00;0.40;;;;;;;;;;5074873;28;20165;-84
2023/12/24 05:46:36;;;;;;;0.60;0.40;;;;;;;;;;5075175;28;20172;-84
2023/12/24 05:49:02;;;;;;;1.98;0.40;;;;;;;;;;5075130;28;20429;-84
2023/12/24 05:51:28;;;;;;;0.60;0.50;;;;;;;;;;5074917;28;20589;-84
2023/12/24 05:53:54;;;;;;;0.70;0.50;;;;;;;;;;5073812;28;20419;-83
2023/12/24 05:56:20;;;;;;;0.63;0.47;;;;;;;;;;5075235;28;20196;-84
2023/12/24 05:58:46;;;;;;;0.70;0.47;;;;;;;;;;5074798;28;20501;-84
2023/12/24 06:01:12;;;;;;;0.70;0.50;;;;;;;;;;5075294;28;20914;-85
2023/12/24 06:03:38;;;;;;;0.90;0.40;;;;;;;;;;5075661;28;20404;-84
2023/12/24 06:06:04;;;;;;;0.60;0.40;;;;;;;;;;5075232;28;20417;-84
2023/12/24 06:08:30;;;;;;;0.70;0.50;;;;;;;;;;5074903;28;20187;-84
2023/12/24 06:10:56;;;;;;;0.60;0.40;;;;;;;;;;5075787;28;20212;-83
2023/12/24 06:13:22;;;;;;;1.77;0.50;;;;;;;;;;5078632;28;20391;-84
2023/12/24 06:15:47;;;;;;;1.77;0.40;;;;;;;;;;5079636;28;20399;-84
2023/12/24 06:18:13;;;;;;;0.60;0.40;;;;;;;;;;5078807;28;20185;-84
2023/12/24 06:20:39;;;;;;;0.80;0.52;;;;;;;;;;5078940;28;20411;-83
2023/12/24 06:23:05;;;;;;;0.70;0.50;;;;;;;;;;5078985;28;20533;-83
2023/12/24 06:25:33;;;;;;;0.60;0.40;;;;;;;;;;5078713;28;20493;-83
2023/12/24 06:27:59;;;;;;;0.70;0.50;;;;;;;;;;5078647;28;20797;-84
2023/12/24 06:30:25;;;;;;;4.97;0.60;;;;;;;;;;5076899;28;20204;-84
2023/12/24 06:32:51;;;;;;;0.93;0.40;;;;;;;;;;5078694;28;20476;-84
2023/12/24 06:35:17;;;;;;;0.70;0.50;;;;;;;;;;5078914;28;20496;-84
2023/12/24 06:37:43;;;;;;;0.65;0.40;;;;;;;;;;5079081;28;20832;-83
2023/12/24 06:40:09;;;;;;;0.70;0.50;;;;;;;;;;5078542;28;20223;-83
2023/12/24 06:42:35;;;;;;;0.88;0.60;;;;;;;;;;5078340;28;20187;-83
2023/12/24 06:45:01;;;;;;;0.60;0.40;;;;;;;;;;5078921;28;20180;-83
2023/12/24 06:47:27;;;;;;;0.90;0.60;;;;;;;;;;5077156;28;20414;-84
2023/12/24 06:49:53;;;;;;;0.70;0.50;;;;;;;;;;5078273;28;20517;-84
2023/12/24 06:52:19;;;;;;;0.60;0.40;;;;;;;;;;5077044;28;20427;-83
2023/12/24 06:54:45;;;;;;;0.70;0.40;;;;;;;;;;5078472;28;20449;-83
2023/12/24 06:57:11;;;;;;;0.68;0.50;;;;;;;;;;5078522;28;20173;-83
2023/12/24 06:59:38;;;;;;;0.60;0.40;;;;;;;;;;5078084;28;20187;-84
2023/12/24 07:02:04;;;;;;;0.70;0.50;;;;;;;;;;5078129;28;20188;-84
2023/12/24 07:04:30;;;;;;;0.60;0.43;;;;;;;;;;5077845;28;20189;-84
2023/12/24 07:06:56;;;;;;;0.70;0.40;;;;;;;;;;5078438;28;20648;-83
2023/12/24 07:09:22;;;;;;;0.60;0.40;;;;;;;;;;5077009;28;20252;-84
2023/12/24 07:11:48;;;;;;;0.60;0.40;;;;;;;;;;5078439;28;20411;-83
2023/12/24 07:14:14;;;;;;;0.60;0.40;;;;;;;;;;5077688;28;20256;-85
2023/12/24 07:16:40;;;;;;;0.60;0.40;;;;;;;;;;5081422;28;20438;-84
2023/12/24 07:19:08;;;;;;;0.60;0.40;;;;;;;;;;5077742;28;21522;-83
2023/12/24 07:21:34;;;;;;;0.60;0.40;;;;;;;;;;5078165;28;20702;-84
2023/12/24 07:24:00;;;;;;;1.53;0.50;;;;;;;;;;5077352;28;20181;-83
2023/12/24 07:26:26;;;;;;;0.70;0.50;;;;;;;;;;5077940;28;20415;-83
2023/12/24 07:28:52;;;;;;;0.60;0.50;;;;;;;;;;5077979;28;20185;-83
2023/12/24 07:31:18;;;;;;;2.28;0.60;;;;;;;;;;5077343;28;20553;-84
2023/12/24 07:33:44;;;;;;;0.60;0.50;;;;;;;;;;5077234;28;20577;-83
2023/12/24 07:36:10;;;;;;;0.60;0.40;;;;;;;;;;5077818;28;20233;-83
2023/12/24 07:38:36;;;;;;;0.70;0.50;;;;;;;;;;5077466;28;20251;-82
2023/12/24 07:41:03;;;;;;;0.70;0.50;;;;;;;;;;5077820;28;20710;-82
2023/12/24 07:43:29;;;;;;;0.90;0.50;;;;;;;;;;5077093;28;20913;-83
2023/12/24 07:45:56;;;;;;;0.70;0.47;;;;;;;;;;5077450;28;20226;-83
2023/12/24 07:48:24;;;;;;;0.70;0.50;;;;;;;;;;5077177;28;20207;-82
2023/12/24 07:50:50;;;;;;;0.70;0.50;;;;;;;;;;5077012;28;20297;-82
2023/12/24 07:53:16;;;;;;;0.88;0.47;;;;;;;;;;5076574;28;20172;-84
2023/12/24 07:55:42;;;;;;;0.80;0.50;;;;;;;;;;5076669;28;20204;-83
2023/12/24 07:58:08;;;;;;;0.70;0.50;;;;;;;;;;5076927;28;20177;-83
2023/12/24 08:00:34;;;;;;;0.60;0.40;;;;;;;;;;5076541;28;20403;-83
2023/12/24 08:03:00;;;;;;;0.60;0.40;;;;;;;;;;5076911;28;20172;-82
2023/12/24 08:05:26;;;;;;;0.70;0.50;;;;;;;;;;5076838;28;20176;-82
2023/12/24 08:07:52;;;;;;;0.60;0.50;;;;;;;;;;5076642;28;20403;-81
2023/12/24 08:10:18;;;;;;;0.80;0.50;;;;;;;;;;5076345;28;20530;-83
2023/12/24 08:12:44;;;;;;;1.10;0.47;;;;;;;;;;5076811;28;20177;-83
2023/12/24 08:15:10;;;;;;;0.60;0.40;;;;;;;;;;5076838;28;20188;-83
2023/12/24 08:17:37;;;;;;;1.20;0.53;;;;;;;;;;5076435;28;20677;-83
2023/12/24 08:20:03;;;;;;;0.60;0.40;;;;;;;;;;5076665;28;20427;-83
2023/12/24 08:22:29;;;;;;;0.70;0.40;;;;;;;;;;5076572;28;20272;-83
2023/12/24 08:24:55;;;;;;;0.60;0.40;;;;;;;;;;5076377;28;20211;-82
2023/12/24 08:27:21;;;;;;;0.60;0.40;;;;;;;;;;5075092;28;20411;-84
2023/12/24 08:29:47;;;;;;;0.70;0.50;;;;;;;;;;5075926;28;20826;-83
2023/12/24 08:32:13;;;;;;;1.37;0.50;;;;;;;;;;5076576;28;20177;-83
2023/12/24 08:34:39;;;;;;;0.60;0.40;;;;;;;;;;5075573;28;20419;-82
2023/12/24 08:37:05;;;;;;;0.60;0.40;;;;;;;;;;5076250;28;20759;-82
2023/12/24 08:39:31;;;;;;;0.60;0.40;;;;;;;;;;5076218;28;20484;-82
2023/12/24 08:41:57;;;;;;;0.63;0.50;;;;;;;;;;5076452;28;20566;-82
2023/12/24 08:44:23;;;;;;;0.60;0.40;;;;;;;;;;5074479;28;20173;-83
2023/12/24 08:46:49;;;;;;;2.50;0.60;;;;;;;;;;5076111;28;20408;-82
2023/12/24 08:49:16;;;;;;;0.70;0.50;;;;;;;;;;5075827;28;20470;-82
2023/12/24 08:51:42;;;;;;;0.70;0.50;;;;;;;;;;5075646;28;20192;-82
2023/12/24 08:54:08;;;;;;;0.60;0.40;;;;;;;;;;5075990;28;20173;-82
2023/12/24 08:56:35;;;;;;;0.60;0.50;;;;;;;;;;5075635;28;20256;-82
2023/12/24 08:59:01;;;;;;;0.60;0.40;;;;;;;;;;5075703;28;20169;-83
2023/12/24 09:01:27;;;;;;;0.60;0.50;;;;;;;;;;5075376;28;20187;-82
2023/12/24 09:03:53;;;;;;;0.60;0.40;;;;;;;;;;5075623;28;20172;-82
2023/12/24 09:06:19;;;;;;;0.80;0.53;;;;;;;;;;5074425;28;20457;-82
2023/12/24 09:08:45;;;;;;;0.80;0.50;;;;;;;;;;5075939;28;20411;-82
2023/12/24 09:11:11;;;;;;;0.60;0.40;;;;;;;;;;5075368;28;20498;-85
2023/12/24 09:13:37;;;;;;;2.35;0.50;;;;;;;;;;5075199;28;20548;-82
2023/12/24 09:16:03;;;;;;;0.80;0.60;;;;;;;;;;5075372;28;20183;-82
2023/12/24 09:18:29;;;;;;;0.80;0.50;;;;;;;;;;5075578;28;20200;-83
2023/12/24 09:20:55;;;;;;;0.70;0.50;;;;;;;;;;5075887;28;20189;-82
2023/12/24 09:23:21;;;;;;;0.70;0.50;;;;;;;;;;5075420;28;20184;-83
2023/12/24 09:25:47;;;;;;;3.10;0.60;;;;;;;;;;5074308;28;20419;-82
2023/12/24 09:28:14;;;;;;;0.80;0.50;;;;;;;;;;5075304;28;20769;-83
2023/12/24 09:30:40;;;;;;;2.00;0.50;;;;;;;;;;5074979;28;20455;-82
2023/12/24 09:33:06;;;;;;;0.77;0.60;;;;;;;;;;5075574;28;20276;-83
2023/12/24 09:35:32;;;;;;;1.10;0.55;;;;;;;;;;5074686;28;20399;-83
2023/12/24 09:37:58;;;;;;;1.10;0.60;;;;;;;;;;5075416;28;20636;-83
2023/12/24 09:40:24;;;;;;;1.35;0.50;;;;;;;;;;5075089;28;20395;-83
2023/12/24 09:42:50;;;;;;;1.20;0.70;;;;;;;;;;5075713;28;20192;-83
2023/12/24 09:45:16;;;;;;;0.60;0.50;;;;;;;;;;5075220;28;20753;-83
2023/12/24 09:47:42;;;;;;;0.70;0.40;;;;;;;;;;5074072;28;20592;-82
2023/12/24 09:50:08;;;;;;;0.80;0.50;;;;;;;;;;5075230;28;20979;-82
2023/12/24 09:52:34;;;;;;;0.60;0.40;;;;;;;;;;5074936;28;20921;-82
2023/12/24 09:55:01;;;;;;;0.70;0.50;;;;;;;;;;5075325;28;20240;-83
2023/12/24 09:57:27;;;;;;;0.70;0.50;;;;;;;;;;5073857;28;20188;-83
2023/12/24 09:59:53;;;;;;;0.70;0.50;;;;;;;;;;5074850;28;20173;-82
2023/12/24 10:02:19;;;;;;;0.93;0.60;;;;;;;;;;5074254;28;20407;-83
2023/12/24 10:04:45;;;;;;;0.60;0.40;;;;;;;;;;5075019;28;20399;-82
2023/12/24 10:07:11;;;;;;;0.60;0.40;;;;;;;;;;5075790;28;20808;-82
2023/12/24 10:09:45;;;;;;;0.70;0.50;;;;;;;;;;5074508;28;20458;-83
2023/12/24 10:12:11;;;;;;;0.90;0.60;;;;;;;;;;5075554;28;20165;-83
2023/12/24 10:14:41;;;;;;;1.92;0.40;;;;;;;;;;5074975;28;20177;-83
2023/12/24 10:17:07;;;;;;;0.73;0.50;;;;;;;;;;5074897;28;20181;-82
2023/12/24 10:19:34;;;;;;;0.98;0.57;;;;;;;;;;5074704;28;20212;-83
2023/12/24 10:22:04;;;;;;;0.70;0.50;;;;;;;;;;5075270;28;20632;-82
2023/12/24 10:24:31;;;;;;;0.90;0.50;;;;;;;;;;5074516;28;20173;-83
2023/12/24 10:27:04;;;;;;;0.90;0.50;;;;;;;;;;5074917;28;20169;-83
2023/12/24 10:29:30;;;;;;;0.70;0.50;;;;;;;;;;5074850;28;20192;-83
2023/12/24 10:31:56;;;;;;;0.70;0.50;;;;;;;;;;5074629;28;20169;-83
2023/12/24 10:34:22;;;;;;;0.70;0.50;;;;;;;;;;5074763;28;20468;-82
2023/12/24 10:36:48;;;;;;;0.80;0.50;;;;;;;;;;5074371;28;20446;-83
2023/12/24 10:39:18;;;;;;;0.70;0.60;;;;;;;;;;5074183;28;20177;-83
2023/12/24 10:41:44;;;;;;;1.10;0.80;;;;;;;;;;5073188;28;20299;-83
2023/12/24 10:44:10;;;;;;;1.70;0.53;;;;;;;;;;5075002;28;20216;-82
2023/12/24 10:46:36;;;;;;;0.70;0.50;;;;;;;;;;5073159;28;20983;-83
2023/12/24 10:49:02;;;;;;;0.80;0.52;;;;;;;;;;5072466;28;20234;-82
2023/12/24 10:51:28;;;;;;;0.70;0.50;;;;;;;;;;5056463;28;20216;-83
2023/12/24 10:53:54;;;;;;;1.20;0.53;;;;;;;;;;5075196;28;20403;-82
2023/12/24 10:56:27;;;;;;;1.10;0.98;;;;;;;;;;5074737;28;20407;-82
2023/12/24 10:58:52;;;;;;;0.77;0.50;;;;;;;;;;5077863;28;20212;-82
2023/12/24 11:01:19;;;;;;;0.70;0.60;;;;;;;;;;5078209;28;20180;-82
2023/12/24 11:03:48;;;;;;;0.80;0.60;;;;;;;;;;5078107;28;20403;-82
2023/12/24 11:06:32;;;;;;;0.70;0.50;;;;;;;;;;5077131;28;20179;-83
2023/12/24 11:08:58;;;;;;;0.75;0.60;;;;;;;;;;5078253;28;20530;-82
2023/12/24 11:11:24;;;;;;;2.43;0.60;;;;;;;;;;5077530;28;20223;-81
2023/12/24 11:13:50;;;;;;;0.60;0.50;;;;;;;;;;5077434;28;20883;-82
2023/12/24 11:16:35;;;;;;;1.55;0.63;;;;;;;;;;5077308;28;20276;-83
2023/12/24 11:19:01;;;;;;;0.85;0.60;;;;;;;;;;5076958;28;20176;-83
2023/12/24 11:21:27;;;;;;;0.80;0.70;;;;;;;;;;5077951;28;20238;-82
2023/12/24 11:24:12;;;;;;;0.93;0.70;;;;;;;;;;5077217;28;20478;-83
2023/12/24 11:26:38;;;;;;;1.23;0.68;;;;;;;;;;5077182;28;20207;-83
2023/12/24 11:29:23;;;;;;;3.13;1.00;;;;;;;;;;5077275;28;20629;-83
2023/12/24 11:31:50;;;;;;;0.95;0.60;;;;;;;;;;5077009;28;20426;-82
2023/12/24 11:34:32;;;;;;;1.33;0.68;;;;;;;;;;5076995;28;20625;-82
2023/12/24 11:37:04;;;;;;;0.90;0.68;;;;;;;;;;5077185;28;20214;-82
2023/12/24 11:39:50;;;;;;;3.50;1.00;;;;;;;;;;5076497;28;20227;-82
2023/12/24 11:42:15;;;;;;;0.90;0.60;;;;;;;;;;5077136;28;20264;-83
2023/12/24 11:44:41;;;;;;;1.10;0.80;;;;;;;;;;5075148;28;20209;-83
2023/12/24 11:47:19;;;;;;;1.10;0.93;;;;;;;;;;5075477;28;20399;-83
2023/12/24 11:49:46;;;;;;;1.20;0.70;;;;;;;;;;5078657;28;20487;-82
2023/12/24 11:52:12;;;;;;;1.75;0.90;;;;;;;;;;5076558;28;20169;-82
2023/12/24 11:54:39;;;;;;;1.20;0.80;;;;;;;;;;5076494;28;20169;-82
2023/12/24 11:57:05;;;;;;;0.80;0.70;;;;;;;;;;5076597;28;20183;-82
2023/12/24 11:59:31;;;;;;;0.90;0.70;;;;;;;;;;5076609;28;20176;-83
2023/12/24 12:02:03;;;;;;;3.67;0.90;;;;;;;;;;5076588;28;20407;-82
2023/12/24 12:04:29;;;;;;;0.75;0.60;;;;;;;;;;5076549;28;20464;-81
2023/12/24 12:06:55;;;;;;;6.47;1.00;;;;;;;;;;5076794;28;20176;-81
2023/12/24 12:09:21;;;;;;;1.00;0.90;;;;;;;;;;5077033;28;20406;-81
2023/12/24 12:11:50;;;;;;;1.00;0.80;;;;;;;;;;5074821;28;20903;-81
2023/12/24 12:14:16;;;;;;;0.70;0.57;;;;;;;;;;5076619;28;20206;-81
2023/12/24 12:16:42;;;;;;;0.75;0.70;;;;;;;;;;5076284;28;20672;-81
2023/12/24 12:19:08;;;;;;;0.90;0.80;;;;;;;;;;5076333;28;20181;-81
2023/12/24 12:21:34;;;;;;;0.90;0.60;;;;;;;;;;5075141;28;20418;-82
2023/12/24 12:24:00;;;;;;;1.93;0.60;;;;;;;;;;5076750;28;20415;-81
2023/12/24 12:26:26;;;;;;;1.00;0.70;;;;;;;;;;5076348;28;20776;-81
2023/12/24 12:28:52;;;;;;;1.05;0.60;;;;;;;;;;5076192;28;20423;-81
2023/12/24 12:31:18;;;;;;;1.73;0.70;;;;;;;;;;5076030;28;20200;-83
2023/12/24 12:33:44;;;;;;;1.33;1.13;;;;;;;;;;5075888;28;20406;-82
2023/12/24 12:36:10;;;;;;;0.87;0.70;;;;;;;;;;5075914;28;20449;-83
2023/12/24 12:38:36;;;;;;;0.70;0.53;;;;;;;;;;5075542;28;20847;-84
2023/12/24 12:41:04;;;;;;;3.90;0.60;;;;;;;;;;5077237;28;20438;-83
2023/12/24 12:43:30;;;;;;;1.95;0.98;;;;;;;;;;5077586;28;20172;-83
2023/12/24 12:45:56;;;;;;;1.20;0.70;;;;;;;;;;5077348;28;20260;-83
2023/12/24 12:48:22;;;;;;;1.08;0.90;;;;;;;;;;5077648;28;20403;-82
2023/12/24 12:50:48;;;;;;;0.90;0.80;;;;;;;;;;5076311;28;20236;-82
2023/12/24 12:53:22;;;;;;;1.10;0.70;;;;;;;;;;5077010;28;20184;-82
2023/12/24 12:55:48;;;;;;;1.20;0.90;;;;;;;;;;5077017;28;20404;-81
2023/12/24 12:58:14;;;;;;;0.80;0.60;;;;;;;;;;5076914;28;20181;-81
2023/12/24 13:00:40;;;;;;;0.80;0.70;;;;;;;;;;5076215;28;20407;-81
2023/12/24 13:03:07;;;;;;;0.80;0.70;;;;;;;;;;5075183;28;20181;-82
2023/12/24 13:05:33;;;;;;;1.25;0.93;;;;;;;;;;5076253;28;20169;-82
2023/12/24 13:08:00;;;;;;;0.68;0.57;;;;;;;;;;5076067;28;20172;-82
2023/12/24 13:10:33;;;;;;;1.10;0.50;;;;;;;;;;5077326;28;20207;-81
2023/12/24 13:13:10;;;;;;;0.90;0.65;;;;;;;;;;5076489;28;20512;-82
2023/12/24 13:15:37;;;;;;;0.90;0.60;;;;;;;;;;5076299;28;20161;-83
2023/12/24 13:18:14;;;;;;;0.80;0.60;;;;;;;;;;5076917;28;20227;-82
2023/12/24 13:20:40;;;;;;;1.30;0.60;;;;;;;;;;5077411;28;20188;-82
2023/12/24 13:23:08;;;;;;;0.82;0.65;;;;;;;;;;5076054;28;20185;-82
2023/12/24 13:25:34;;;;;;;2.25;0.70;;;;;;;;;;5076405;28;20173;-83
2023/12/24 13:28:00;;;;;;;0.70;0.57;;;;;;;;;;5074942;28;20175;-83
2023/12/24 13:30:26;;;;;;;1.83;0.90;;;;;;;;;;5076603;28;20474;-82
2023/12/24 13:32:52;;;;;;;3.43;0.70;;;;;;;;;;5076220;28;20403;-83
2023/12/24 13:35:18;;;;;;;0.70;0.60;;;;;;;;;;5076324;28;20403;-83
2023/12/24 13:37:44;;;;;;;0.80;0.60;;;;;;;;;;5075808;28;20399;-83
2023/12/24 13:40:10;;;;;;;0.77;0.57;;;;;;;;;;5076015;28;20759;-83
2023/12/24 13:42:36;;;;;;;1.15;0.60;;;;;;;;;;5074712;28;20986;-85
2023/12/24 13:45:02;;;;;;;0.90;0.60;;;;;;;;;;5076349;28;20230;-83
2023/12/24 13:47:28;;;;;;;0.70;0.50;;;;;;;;;;5076034;28;20468;-82
2023/12/24 13:49:58;;;;;;;1.00;0.63;;;;;;;;;;5075411;28;20685;-83
2023/12/24 13:52:23;;;;;;;0.88;0.65;;;;;;;;;;5075500;28;20406;-83
2023/12/24 13:54:49;;;;;;;1.17;0.60;;;;;;;;;;5074114;28;20542;-82
2023/12/24 13:57:15;;;;;;;0.95;0.82;;;;;;;;;;5074896;28;20399;-82
2023/12/24 13:59:44;;;;;;;1.33;0.70;;;;;;;;;;5075480;28;20702;-82
2023/12/24 14:02:10;;;;;;;0.70;0.50;;;;;;;;;;5073372;28;20813;-82
2023/12/24 14:04:36;;;;;;;2.05;1.00;;;;;;;;;;5074714;28;20209;-83
2023/12/24 14:07:02;;;;;;;1.23;0.60;;;;;;;;;;5074573;28;20229;-83
2023/12/24 14:09:28;;;;;;;0.80;0.70;;;;;;;;;;5074215;28;20192;-83
2023/12/24 14:11:54;;;;;;;2.73;0.77;;;;;;;;;;5074406;28;20172;-83
2023/12/24 14:14:20;;;;;;;1.75;0.70;;;;;;;;;;5074307;28;20403;-83
2023/12/24 14:16:46;;;;;;;0.90;0.60;;;;;;;;;;5074366;28;20576;-84
2023/12/24 14:19:12;;;;;;;1.53;0.90;;;;;;;;;;5074525;28;20339;-82
2023/12/24 14:21:38;;;;;;;0.80;0.70;;;;;;;;;;5074518;28;20441;-83
2023/12/24 14:24:04;;;;;;;0.95;0.75;;;;;;;;;;5074500;28;20413;-84
2023/12/24 14:26:30;;;;;;;0.98;0.70;;;;;;;;;;5074430;28;20264;-83
2023/12/24 14:28:56;;;;;;;2.13;0.90;;;;;;;;;;5072898;28;20213;-84
2023/12/24 14:31:22;;;;;;;1.70;0.70;;;;;;;;;;5073585;28;20474;-84
2023/12/24 14:33:48;;;;;;;1.30;0.70;;;;;;;;;;5076450;28;20476;-83
2023/12/24 14:36:15;;;;;;;2.67;1.17;;;;;;;;;;5078033;28;20426;-84
2023/12/24 14:38:41;;;;;;;0.80;0.60;;;;;;;;;;5078168;28;20498;-85